Record high temperature 100.4°F Record low temperature 10.6°F Record high gust 40 mph Record high average 22.8 mph Record daily rain 11.65 in. Record low windchill 2.7°F Record high barometer 30.773 in. Record low barometer 29.184 in.
Daily high pressure 30.003 in. Daily low pressure 29.882 in. Daily low windchill 55.3°F Daily high heat index 78.2°F Daily high gust speed 12.0 mph W Daily high average speed 5.6 mph NNW
Forecast: partly cloudy and cooler.
On the Greenway Weather Data - Tigard OR
LAST READING AT TIME: 11:58 PM DATE: September 02 2014, time of next update: 11:59 pm
Current WeatherNight time/Dry Current Temperature 59.0°F (15.0°C), Apparent temp 59.5°F
Maximum Temperature (since midnight)78.2°F at: 3:51 PM Minimum Temperature (since midnight)55.3°F at: 7:04 AM
Average windspeed (ten minute)0.0 mph Wind Direction (ten minute)WNW (292°)
Windchill Temperature 59.0°F Maximum Gust (last hour) 1 mph at: 11:03 PM
Maximum Gust (since midnight)12 mph at: 7:05 PM Maximum 1 minute average (since midnight)5.6 mph at: 6:35 PM
Rainfall (last hour)0.00 in. (0.0 mm) Rainfall (since midnight)0.00 in. (0.0 mm) ---
Rainfall This month 0.00 in. (0.0 mm) Rainfall To date this year 30.80 in. (782.2 mm)
Maximum rain per minute (last hour)0.00 in/min Maximum rain per hour (last 6 hours)0.00 in/hour
Yesterdays rainfall 0.00 in DewPoint 49.2°F (Wet Bulb :53.9°F )
Humidity 70 %, Humidex 61.0°F Barometer corrected to msl30.003 in. (1016.0 hPa)
Pressure change +0.01 in. (last hour) Trend (last hour)STEADY
Pressure change (last 12 hours)+0.06 in Pressure change (last 6 hours)+0.10 in

This page is updated from recent data collected by a DAVIS VANTAGE PRO weather station Use the Reload or Refresh facility on your browser to retrieve the latest data.


Click here for the last 24 hour graph
Click here for the last 48 hour graph
Click here for the last 72 hour graph
Click here for the month to date graph


Weather report/Warning/Metars

PORTLAND-HILLSBORO AIRPORT, OR, United States (KHIO) 45-33N 122-57W 68M
Sep 03, 2014 - 01:53 AM EDT / 2014.09.03 0553 UTC
Wind: from the WNW (300 degrees) at 5 MPH (4 KT):0
Visibility: 10 mile(s):0
Sky conditions: clear
Temperature: 57.9 F (14.4 C)
Dew Point: 48.0 F (8.9 C)
Relative Humidity: 69%
Pressure (altimeter): 29.99 in. Hg (1015 hPa)
Pressure tendency: 0.06 inches (2.1 hPa) higher than three hours ago
ob: KHIO 030553Z AUTO 30004KT 10SM CLR 14/09 A2999 RMK AO2 SLP155 T01440089 10228 20133 51021
cycle: 6
PORTLAND INTERNATIONAL  AIRPORT, OR, United States (KPDX) 45-35N 122-36W 7M
Sep 03, 2014 - 01:53 AM EDT / 2014.09.03 0553 UTC
Wind: from the W (270 degrees) at 7 MPH (6 KT):0
Visibility: 10 mile(s):0
Sky conditions: mostly cloudy
Temperature: 62.1 F (16.7 C)
Dew Point: 48.9 F (9.4 C)
Relative Humidity: 62%
Pressure (altimeter): 29.99 in. Hg (1015 hPa)
Pressure tendency: 0.06 inches (2.2 hPa) higher than three hours ago
ob: KPDX 030553Z 27006KT 10SM BKN060 17/09 A2999 RMK AO2 SLP155 T01670094 10222 20161 51022
cycle: 6
PORTLAND-TROUTDALE AIRPORT, OR, United States (KTTD) 45-33N 122-25W 14M
Sep 03, 2014 - 01:53 AM EDT / 2014.09.03 0553 UTC
Wind: Calm:0
Visibility: 10 mile(s):0
Sky conditions: clear
Temperature: 62.1 F (16.7 C)
Dew Point: 48.0 F (8.9 C)
Relative Humidity: 59%
Pressure (altimeter): 29.98 in. Hg (1015 hPa)
Pressure tendency: 0.07 inches (2.3 hPa) higher than three hours ago
ob: KTTD 030553Z AUTO 00000KT 10SM CLR 17/09 A2998 RMK AO2 SLP150 T01670089 10233 20167 51023
cycle: 6
MCMINNVILLE MUNICIPAL AIRPORT , OR, United States (KMMV) 45-12N 123-08W 48M
Sep 03, 2014 - 01:53 AM EDT / 2014.09.03 0553 UTC
Wind: from the WSW (250 degrees) at 7 MPH (6 KT):0
Visibility: 10 mile(s):0
Sky conditions: clear
Temperature: 55.9 F (13.3 C)
Dew Point: 51.1 F (10.6 C)
Relative Humidity: 83%
Pressure (altimeter): 30.01 in. Hg (1016 hPa)
Pressure tendency: 0.06 inches (1.9 hPa) higher than three hours ago
ob: KMMV 030553Z AUTO 25006KT 10SM CLR 13/11 A3001 RMK AO2 SLP162 T01330106 10239 20133 53019
cycle: 6
SALEM MCNARY FIELD, OR, United States (KSLE) 44-54N 123-00W 59M
Sep 03, 2014 - 01:56 AM EDT / 2014.09.03 0556 UTC
Wind: from the W (270 degrees) at 12 MPH (10 KT):0
Visibility: 10 mile(s):0
Sky conditions: clear
Temperature: 61.0 F (16.1 C)
Dew Point: 52.0 F (11.1 C)
Relative Humidity: 72%
Pressure (altimeter): 30 in. Hg (1015 hPa)
Pressure tendency: 0.05 inches (1.7 hPa) higher than three hours ago
ob: KSLE 030556Z 27010KT 10SM CLR 16/11 A3000 RMK AO2 SLP156 T01610111 10250 20161 51017
cycle: 6


Sunset at:
7:48 pm

Moonrise at:
2:46 pm 09/02/14

Moonset at:
11:30 pm 09/01/14

First Quarter  2 September 2014
Full moon  9 September 2014
Last Quarter16 September 2014
New moon 24 September 2014
Moon age: 7 days,5 hours,1 minutes,48%
Hours of possible daylight today was 13:15



Use the RELOAD facility on your browser to retrieve the latest data.

Click here for current Fire weather info
Click here for the daily CLIMATOLOGICAL SUMMARY
Click here for a daily update of the averages/extremes to date for the month




Created by "Weather Display" software version 10.37R Build 81 at this start time/date 5:19 pm 9/1/2014




On The Greenway Weather Web Site

 
 
HELP US OUT
Help us keep this weather station on the web. for the Tigard / Portland internet users to use. If you would like to help, click the donate button below
 
This site is purely funded by donations and by myself (Ray Cooper)
Anything you can do will help keep this station on the net
Average cost per year is $665 to publish and host this site excluding the cost of the weather equipment
Buyastrostuff.com is kind enough to host our DNS and email at no cost.
THANKS GUYS & Gals for helping
Have a Question,or just want to talk. Contact me at:
Ray Cooper @ Buyastrostuff.com